sensor_id;sensor_type;location;lat;lon;timestamp;P1;durP1;ratioP1;P2;durP2;ratioP2
59074;SDS011;44860;53.020;6.738;2023-03-29T00:01:11;5.55;;;3.42;;
59074;SDS011;44860;53.020;6.738;2023-03-29T00:03:37;6.88;;;3.47;;
59074;SDS011;44860;53.020;6.738;2023-03-29T00:06:04;4.70;;;3.33;;
59074;SDS011;44860;53.020;6.738;2023-03-29T00:08:30;6.95;;;3.00;;
59074;SDS011;44860;53.020;6.738;2023-03-29T00:10:58;5.72;;;3.30;;
59074;SDS011;44860;53.020;6.738;2023-03-29T00:13:24;7.20;;;3.60;;
59074;SDS011;44860;53.020;6.738;2023-03-29T00:15:51;7.22;;;3.53;;
59074;SDS011;44860;53.020;6.738;2023-03-29T00:18:17;5.18;;;3.22;;
59074;SDS011;44860;53.020;6.738;2023-03-29T00:20:43;7.00;;;3.53;;
59074;SDS011;44860;53.020;6.738;2023-03-29T00:23:08;6.93;;;3.20;;
59074;SDS011;44860;53.020;6.738;2023-03-29T00:25:34;6.05;;;3.60;;
59074;SDS011;44860;53.020;6.738;2023-03-29T00:28:00;7.25;;;3.80;;
59074;SDS011;44860;53.020;6.738;2023-03-29T00:30:26;5.10;;;3.50;;
59074;SDS011;44860;53.020;6.738;2023-03-29T00:32:51;6.95;;;3.55;;
59074;SDS011;44860;53.020;6.738;2023-03-29T00:35:17;6.63;;;3.42;;
59074;SDS011;44860;53.020;6.738;2023-03-29T00:37:43;6.82;;;3.60;;
59074;SDS011;44860;53.020;6.738;2023-03-29T00:40:11;5.82;;;3.60;;
59074;SDS011;44860;53.020;6.738;2023-03-29T00:42:37;6.43;;;4.15;;
59074;SDS011;44860;53.020;6.738;2023-03-29T00:45:16;7.10;;;3.53;;
59074;SDS011;44860;53.020;6.738;2023-03-29T00:51:15;8.27;;;4.20;;
59074;SDS011;44860;53.020;6.738;2023-03-29T00:53:19;6.72;;;3.72;;
59074;SDS011;44860;53.020;6.738;2023-03-29T00:58:14;7.47;;;3.72;;
59074;SDS011;44860;53.020;6.738;2023-03-29T01:00:49;6.03;;;3.78;;
59074;SDS011;44860;53.020;6.738;2023-03-29T01:03:21;7.13;;;3.80;;
59074;SDS011;44860;53.020;6.738;2023-03-29T01:05:56;8.35;;;4.40;;
59074;SDS011;44860;53.020;6.738;2023-03-29T01:08:31;8.05;;;4.60;;
59074;SDS011;44860;53.020;6.738;2023-03-29T01:11:04;8.32;;;4.40;;
59074;SDS011;44860;53.020;6.738;2023-03-29T01:13:40;7.90;;;4.65;;
59074;SDS011;44860;53.020;6.738;2023-03-29T01:16:15;7.40;;;4.60;;
59074;SDS011;44860;53.020;6.738;2023-03-29T01:18:43;7.25;;;4.57;;
59074;SDS011;44860;53.020;6.738;2023-03-29T01:21:16;7.78;;;4.75;;
59074;SDS011;44860;53.020;6.738;2023-03-29T01:26:35;6.20;;;4.85;;
59074;SDS011;44860;53.020;6.738;2023-03-29T01:29:09;8.48;;;5.00;;
59074;SDS011;44860;53.020;6.738;2023-03-29T01:31:49;8.68;;;4.80;;
59074;SDS011;44860;53.020;6.738;2023-03-29T01:37:12;8.40;;;4.93;;
59074;SDS011;44860;53.020;6.738;2023-03-29T01:39:49;9.75;;;5.38;;
59074;SDS011;44860;53.020;6.738;2023-03-29T01:42:22;9.27;;;5.10;;
59074;SDS011;44860;53.020;6.738;2023-03-29T01:44:53;6.85;;;4.82;;
59074;SDS011;44860;53.020;6.738;2023-03-29T01:47:39;9.13;;;5.25;;
59074;SDS011;44860;53.020;6.738;2023-03-29T01:53:10;9.35;;;5.28;;
59074;SDS011;44860;53.020;6.738;2023-03-29T01:55:53;9.10;;;4.78;;
59074;SDS011;44860;53.020;6.738;2023-03-29T01:58:22;9.05;;;5.45;;
59074;SDS011;44860;53.020;6.738;2023-03-29T02:00:52;8.77;;;5.63;;
59074;SDS011;44860;53.020;6.738;2023-03-29T02:03:19;7.32;;;5.57;;
59074;SDS011;44860;53.020;6.738;2023-03-29T02:05:48;10.32;;;5.45;;
59074;SDS011;44860;53.020;6.738;2023-03-29T02:08:15;9.50;;;5.30;;
59074;SDS011;44860;53.020;6.738;2023-03-29T02:10:43;9.40;;;5.50;;
59074;SDS011;44860;53.020;6.738;2023-03-29T02:13:09;8.55;;;5.45;;
59074;SDS011;44860;53.020;6.738;2023-03-29T02:15:36;8.60;;;5.43;;
59074;SDS011;44860;53.020;6.738;2023-03-29T02:18:02;8.02;;;5.75;;
59074;SDS011;44860;53.020;6.738;2023-03-29T02:20:31;10.30;;;5.43;;
59074;SDS011;44860;53.020;6.738;2023-03-29T02:23:04;8.60;;;5.45;;
59074;SDS011;44860;53.020;6.738;2023-03-29T02:25:38;7.93;;;5.72;;
59074;SDS011;44860;53.020;6.738;2023-03-29T02:28:04;10.40;;;6.45;;
59074;SDS011;44860;53.020;6.738;2023-03-29T02:33:22;7.60;;;5.85;;
59074;SDS011;44860;53.020;6.738;2023-03-29T02:35:57;9.15;;;5.75;;
59074;SDS011;44860;53.020;6.738;2023-03-29T02:38:27;8.40;;;5.57;;
59074;SDS011;44860;53.020;6.738;2023-03-29T02:40:54;8.95;;;5.65;;
59074;SDS011;44860;53.020;6.738;2023-03-29T02:43:22;10.48;;;5.80;;
59074;SDS011;44860;53.020;6.738;2023-03-29T02:45:49;9.35;;;5.90;;
59074;SDS011;44860;53.020;6.738;2023-03-29T02:48:17;10.68;;;6.32;;
59074;SDS011;44860;53.020;6.738;2023-03-29T02:50:46;10.50;;;6.43;;
59074;SDS011;44860;53.020;6.738;2023-03-29T02:53:15;9.35;;;6.20;;
59074;SDS011;44860;53.020;6.738;2023-03-29T02:55:43;10.48;;;6.38;;
59074;SDS011;44860;53.020;6.738;2023-03-29T02:58:10;9.85;;;7.32;;
59074;SDS011;44860;53.020;6.738;2023-03-29T03:00:38;12.75;;;7.38;;
59074;SDS011;44860;53.020;6.738;2023-03-29T03:03:08;11.32;;;7.55;;
59074;SDS011;44860;53.020;6.738;2023-03-29T03:05:36;12.13;;;7.60;;
59074;SDS011;44860;53.020;6.738;2023-03-29T03:08:03;10.52;;;7.63;;
59074;SDS011;44860;53.020;6.738;2023-03-29T03:10:29;11.23;;;7.90;;
59074;SDS011;44860;53.020;6.738;2023-03-29T03:12:57;11.73;;;7.35;;
59074;SDS011;44860;53.020;6.738;2023-03-29T03:15:22;11.52;;;8.18;;
59074;SDS011;44860;53.020;6.738;2023-03-29T03:17:48;13.65;;;8.48;;
59074;SDS011;44860;53.020;6.738;2023-03-29T03:20:14;13.00;;;8.27;;
59074;SDS011;44860;53.020;6.738;2023-03-29T03:22:40;13.95;;;8.70;;
59074;SDS011;44860;53.020;6.738;2023-03-29T03:25:08;14.05;;;9.02;;
59074;SDS011;44860;53.020;6.738;2023-03-29T03:27:37;13.15;;;9.15;;
59074;SDS011;44860;53.020;6.738;2023-03-29T03:30:04;11.73;;;8.68;;
59074;SDS011;44860;53.020;6.738;2023-03-29T03:32:31;14.73;;;9.82;;
59074;SDS011;44860;53.020;6.738;2023-03-29T03:34:58;12.95;;;9.80;;
59074;SDS011;44860;53.020;6.738;2023-03-29T03:37:24;17.50;;;9.98;;
59074;SDS011;44860;53.020;6.738;2023-03-29T03:39:51;18.83;;;10.43;;
59074;SDS011;44860;53.020;6.738;2023-03-29T03:42:17;15.65;;;11.70;;
59074;SDS011;44860;53.020;6.738;2023-03-29T03:44:43;14.57;;;10.30;;
59074;SDS011;44860;53.020;6.738;2023-03-29T03:47:09;15.38;;;11.07;;
59074;SDS011;44860;53.020;6.738;2023-03-29T03:49:36;14.38;;;10.55;;
59074;SDS011;44860;53.020;6.738;2023-03-29T03:52:01;18.27;;;10.70;;
59074;SDS011;44860;53.020;6.738;2023-03-29T03:54:27;17.05;;;10.52;;
59074;SDS011;44860;53.020;6.738;2023-03-29T03:56:53;17.73;;;11.07;;
59074;SDS011;44860;53.020;6.738;2023-03-29T03:59:18;17.08;;;11.43;;
59074;SDS011;44860;53.020;6.738;2023-03-29T04:01:44;15.82;;;11.32;;
59074;SDS011;44860;53.020;6.738;2023-03-29T04:04:10;15.73;;;11.13;;
59074;SDS011;44860;53.020;6.738;2023-03-29T04:06:37;16.52;;;11.48;;
59074;SDS011;44860;53.020;6.738;2023-03-29T04:09:03;16.85;;;11.23;;
59074;SDS011;44860;53.020;6.738;2023-03-29T04:11:29;17.17;;;11.38;;
59074;SDS011;44860;53.020;6.738;2023-03-29T04:13:56;16.27;;;11.95;;
59074;SDS011;44860;53.020;6.738;2023-03-29T04:16:22;17.98;;;11.40;;
59074;SDS011;44860;53.020;6.738;2023-03-29T04:18:48;15.73;;;11.32;;
59074;SDS011;44860;53.020;6.738;2023-03-29T04:21:14;16.70;;;11.05;;
59074;SDS011;44860;53.020;6.738;2023-03-29T04:23:40;16.40;;;11.43;;
59074;SDS011;44860;53.020;6.738;2023-03-29T04:26:07;15.43;;;11.38;;
59074;SDS011;44860;53.020;6.738;2023-03-29T04:28:33;16.95;;;11.55;;
59074;SDS011;44860;53.020;6.738;2023-03-29T04:30:59;16.58;;;12.02;;
59074;SDS011;44860;53.020;6.738;2023-03-29T04:33:25;17.60;;;11.18;;
59074;SDS011;44860;53.020;6.738;2023-03-29T04:35:50;16.00;;;11.38;;
59074;SDS011;44860;53.020;6.738;2023-03-29T04:38:16;15.75;;;11.70;;
59074;SDS011;44860;53.020;6.738;2023-03-29T04:40:47;15.90;;;11.23;;
59074;SDS011;44860;53.020;6.738;2023-03-29T04:43:13;16.13;;;11.77;;
59074;SDS011;44860;53.020;6.738;2023-03-29T04:45:39;14.93;;;11.60;;
59074;SDS011;44860;53.020;6.738;2023-03-29T04:48:05;16.58;;;11.40;;
59074;SDS011;44860;53.020;6.738;2023-03-29T04:50:31;14.55;;;11.00;;
59074;SDS011;44860;53.020;6.738;2023-03-29T04:52:57;18.05;;;11.70;;
59074;SDS011;44860;53.020;6.738;2023-03-29T04:55:24;18.33;;;11.45;;
59074;SDS011;44860;53.020;6.738;2023-03-29T04:57:50;16.48;;;11.50;;
59074;SDS011;44860;53.020;6.738;2023-03-29T05:00:17;16.00;;;11.65;;
59074;SDS011;44860;53.020;6.738;2023-03-29T05:05:16;15.05;;;11.00;;
59074;SDS011;44860;53.020;6.738;2023-03-29T05:07:42;14.55;;;11.40;;
59074;SDS011;44860;53.020;6.738;2023-03-29T05:10:08;17.35;;;11.52;;
59074;SDS011;44860;53.020;6.738;2023-03-29T05:12:34;18.05;;;12.10;;
59074;SDS011;44860;53.020;6.738;2023-03-29T05:14:59;16.60;;;11.35;;
59074;SDS011;44860;53.020;6.738;2023-03-29T05:17:25;17.10;;;11.55;;
59074;SDS011;44860;53.020;6.738;2023-03-29T05:19:51;15.65;;;11.55;;
59074;SDS011;44860;53.020;6.738;2023-03-29T05:22:18;17.90;;;12.00;;
59074;SDS011;44860;53.020;6.738;2023-03-29T05:24:45;18.45;;;12.00;;
59074;SDS011;44860;53.020;6.738;2023-03-29T05:27:11;19.25;;;12.65;;
59074;SDS011;44860;53.020;6.738;2023-03-29T05:29:37;17.17;;;11.35;;
59074;SDS011;44860;53.020;6.738;2023-03-29T05:32:03;17.83;;;12.18;;
59074;SDS011;44860;53.020;6.738;2023-03-29T05:34:28;17.30;;;12.23;;
59074;SDS011;44860;53.020;6.738;2023-03-29T05:36:55;18.55;;;12.00;;
59074;SDS011;44860;53.020;6.738;2023-03-29T05:39:23;18.17;;;12.18;;
59074;SDS011;44860;53.020;6.738;2023-03-29T05:41:48;18.48;;;12.77;;
59074;SDS011;44860;53.020;6.738;2023-03-29T05:44:14;16.65;;;11.88;;
59074;SDS011;44860;53.020;6.738;2023-03-29T05:46:41;17.40;;;12.13;;
59074;SDS011;44860;53.020;6.738;2023-03-29T05:49:06;15.82;;;12.05;;
59074;SDS011;44860;53.020;6.738;2023-03-29T05:51:32;18.48;;;12.55;;
59074;SDS011;44860;53.020;6.738;2023-03-29T05:53:59;20.25;;;12.60;;
59074;SDS011;44860;53.020;6.738;2023-03-29T05:56:26;17.73;;;13.02;;
59074;SDS011;44860;53.020;6.738;2023-03-29T05:58:52;17.98;;;13.15;;
59074;SDS011;44860;53.020;6.738;2023-03-29T06:01:21;17.42;;;12.43;;
59074;SDS011;44860;53.020;6.738;2023-03-29T06:03:48;17.80;;;11.90;;
59074;SDS011;44860;53.020;6.738;2023-03-29T06:06:15;19.92;;;13.27;;
59074;SDS011;44860;53.020;6.738;2023-03-29T06:08:41;17.38;;;13.00;;
59074;SDS011;44860;53.020;6.738;2023-03-29T06:11:08;18.65;;;12.68;;
59074;SDS011;44860;53.020;6.738;2023-03-29T06:13:35;17.17;;;12.13;;
59074;SDS011;44860;53.020;6.738;2023-03-29T06:16:03;15.98;;;12.50;;
59074;SDS011;44860;53.020;6.738;2023-03-29T06:18:30;20.83;;;13.00;;
59074;SDS011;44860;53.020;6.738;2023-03-29T06:20:57;15.02;;;11.98;;
59074;SDS011;44860;53.020;6.738;2023-03-29T06:23:22;20.15;;;13.25;;
59074;SDS011;44860;53.020;6.738;2023-03-29T06:25:49;15.93;;;13.00;;
59074;SDS011;44860;53.020;6.738;2023-03-29T06:28:18;17.60;;;12.85;;
59074;SDS011;44860;53.020;6.738;2023-03-29T06:30:44;18.63;;;12.77;;
59074;SDS011;44860;53.020;6.738;2023-03-29T06:33:10;18.92;;;12.23;;
59074;SDS011;44860;53.020;6.738;2023-03-29T06:35:36;19.10;;;12.40;;
59074;SDS011;44860;53.020;6.738;2023-03-29T06:38:04;19.88;;;12.85;;
59074;SDS011;44860;53.020;6.738;2023-03-29T06:40:32;16.45;;;12.18;;
59074;SDS011;44860;53.020;6.738;2023-03-29T06:42:57;18.05;;;12.95;;
59074;SDS011;44860;53.020;6.738;2023-03-29T06:45:24;17.40;;;10.68;;
59074;SDS011;44860;53.020;6.738;2023-03-29T06:47:54;17.98;;;12.40;;
59074;SDS011;44860;53.020;6.738;2023-03-29T06:50:20;18.42;;;13.10;;
59074;SDS011;44860;53.020;6.738;2023-03-29T06:52:47;16.75;;;12.35;;
59074;SDS011;44860;53.020;6.738;2023-03-29T06:55:13;17.67;;;12.43;;
59074;SDS011;44860;53.020;6.738;2023-03-29T06:57:40;18.67;;;12.25;;
59074;SDS011;44860;53.020;6.738;2023-03-29T07:00:06;18.08;;;12.52;;
59074;SDS011;44860;53.020;6.738;2023-03-29T07:02:41;18.13;;;12.85;;
59074;SDS011;44860;53.020;6.738;2023-03-29T07:05:08;18.38;;;13.25;;
59074;SDS011;44860;53.020;6.738;2023-03-29T07:07:41;18.88;;;13.63;;
59074;SDS011;44860;53.020;6.738;2023-03-29T07:10:21;16.23;;;12.95;;
59074;SDS011;44860;53.020;6.738;2023-03-29T07:12:56;16.80;;;13.07;;
59074;SDS011;44860;53.020;6.738;2023-03-29T07:15:26;20.95;;;12.82;;
59074;SDS011;44860;53.020;6.738;2023-03-29T07:17:53;18.08;;;13.10;;
59074;SDS011;44860;53.020;6.738;2023-03-29T07:20:20;18.48;;;13.27;;
59074;SDS011;44860;53.020;6.738;2023-03-29T07:22:47;19.83;;;13.00;;
59074;SDS011;44860;53.020;6.738;2023-03-29T07:25:15;18.35;;;12.55;;
59074;SDS011;44860;53.020;6.738;2023-03-29T07:27:43;18.42;;;12.77;;
59074;SDS011;44860;53.020;6.738;2023-03-29T07:30:11;15.68;;;12.75;;
59074;SDS011;44860;53.020;6.738;2023-03-29T07:32:39;17.95;;;12.18;;
59074;SDS011;44860;53.020;6.738;2023-03-29T07:35:06;17.42;;;12.55;;
59074;SDS011;44860;53.020;6.738;2023-03-29T07:37:33;15.15;;;11.93;;
59074;SDS011;44860;53.020;6.738;2023-03-29T07:40:02;18.33;;;12.02;;
59074;SDS011;44860;53.020;6.738;2023-03-29T07:42:36;18.83;;;12.50;;
59074;SDS011;44860;53.020;6.738;2023-03-29T07:45:05;15.75;;;11.38;;
59074;SDS011;44860;53.020;6.738;2023-03-29T07:47:32;17.77;;;12.25;;
59074;SDS011;44860;53.020;6.738;2023-03-29T07:49:59;16.58;;;11.60;;
59074;SDS011;44860;53.020;6.738;2023-03-29T07:52:25;15.45;;;11.40;;
59074;SDS011;44860;53.020;6.738;2023-03-29T07:54:54;15.38;;;11.27;;
59074;SDS011;44860;53.020;6.738;2023-03-29T07:57:21;17.55;;;12.40;;
59074;SDS011;44860;53.020;6.738;2023-03-29T07:59:48;15.18;;;10.63;;
59074;SDS011;44860;53.020;6.738;2023-03-29T08:02:14;16.77;;;11.15;;
59074;SDS011;44860;53.020;6.738;2023-03-29T08:04:39;18.33;;;11.40;;
59074;SDS011;44860;53.020;6.738;2023-03-29T08:07:06;15.02;;;11.00;;
59074;SDS011;44860;53.020;6.738;2023-03-29T08:09:32;14.90;;;11.45;;
59074;SDS011;44860;53.020;6.738;2023-03-29T08:11:58;16.83;;;10.90;;
59074;SDS011;44860;53.020;6.738;2023-03-29T08:14:24;15.00;;;10.80;;
59074;SDS011;44860;53.020;6.738;2023-03-29T08:16:49;15.35;;;11.30;;
59074;SDS011;44860;53.020;6.738;2023-03-29T08:19:16;17.25;;;10.55;;
59074;SDS011;44860;53.020;6.738;2023-03-29T08:21:42;13.40;;;10.80;;
59074;SDS011;44860;53.020;6.738;2023-03-29T08:24:08;20.02;;;10.85;;
59074;SDS011;44860;53.020;6.738;2023-03-29T08:26:34;17.02;;;10.68;;
59074;SDS011;44860;53.020;6.738;2023-03-29T08:28:59;13.40;;;10.40;;
59074;SDS011;44860;53.020;6.738;2023-03-29T08:31:25;13.65;;;10.57;;
59074;SDS011;44860;53.020;6.738;2023-03-29T08:33:52;15.50;;;10.82;;
59074;SDS011;44860;53.020;6.738;2023-03-29T08:36:18;13.80;;;9.63;;
59074;SDS011;44860;53.020;6.738;2023-03-29T08:38:44;13.35;;;9.95;;
59074;SDS011;44860;53.020;6.738;2023-03-29T08:41:26;16.20;;;10.18;;
59074;SDS011;44860;53.020;6.738;2023-03-29T08:44:32;13.75;;;9.70;;
59074;SDS011;44860;53.020;6.738;2023-03-29T08:49:43;14.90;;;10.18;;
59074;SDS011;44860;53.020;6.738;2023-03-29T08:52:21;15.85;;;10.35;;
59074;SDS011;44860;53.020;6.738;2023-03-29T08:54:55;17.83;;;10.68;;
59074;SDS011;44860;53.020;6.738;2023-03-29T08:57:24;14.57;;;9.90;;
59074;SDS011;44860;53.020;6.738;2023-03-29T09:02:24;14.50;;;10.52;;
59074;SDS011;44860;53.020;6.738;2023-03-29T09:04:55;14.40;;;10.10;;
59074;SDS011;44860;53.020;6.738;2023-03-29T09:07:48;15.90;;;9.88;;
59074;SDS011;44860;53.020;6.738;2023-03-29T09:10:14;12.38;;;9.80;;
59074;SDS011;44860;53.020;6.738;2023-03-29T09:12:58;13.38;;;10.07;;
59074;SDS011;44860;53.020;6.738;2023-03-29T09:15:53;14.85;;;10.23;;
59074;SDS011;44860;53.020;6.738;2023-03-29T09:27:09;14.93;;;10.25;;
59074;SDS011;44860;53.020;6.738;2023-03-29T09:29:43;16.52;;;10.05;;
59074;SDS011;44860;53.020;6.738;2023-03-29T09:32:28;16.52;;;10.90;;
59074;SDS011;44860;53.020;6.738;2023-03-29T09:37:31;16.92;;;10.07;;
59074;SDS011;44860;53.020;6.738;2023-03-29T09:39:59;13.80;;;10.40;;
59074;SDS011;44860;53.020;6.738;2023-03-29T09:42:30;15.40;;;10.38;;
59074;SDS011;44860;53.020;6.738;2023-03-29T09:44:59;12.88;;;10.05;;
59074;SDS011;44860;53.020;6.738;2023-03-29T09:50:30;17.15;;;11.20;;
59074;SDS011;44860;53.020;6.738;2023-03-29T09:53:01;15.68;;;10.63;;
59074;SDS011;44860;53.020;6.738;2023-03-29T09:55:28;14.50;;;10.77;;
59074;SDS011;44860;53.020;6.738;2023-03-29T09:58:00;15.70;;;10.73;;
59074;SDS011;44860;53.020;6.738;2023-03-29T10:00:39;15.70;;;10.55;;
59074;SDS011;44860;53.020;6.738;2023-03-29T10:03:05;14.88;;;10.52;;
59074;SDS011;44860;53.020;6.738;2023-03-29T10:05:31;17.35;;;10.18;;
59074;SDS011;44860;53.020;6.738;2023-03-29T10:08:01;15.90;;;11.05;;
59074;SDS011;44860;53.020;6.738;2023-03-29T10:10:46;16.42;;;10.85;;
59074;SDS011;44860;53.020;6.738;2023-03-29T10:13:15;17.40;;;11.18;;
59074;SDS011;44860;53.020;6.738;2023-03-29T10:18:49;17.92;;;12.07;;
59074;SDS011;44860;53.020;6.738;2023-03-29T10:21:16;16.88;;;11.80;;
59074;SDS011;44860;53.020;6.738;2023-03-29T10:23:46;17.17;;;11.95;;
59074;SDS011;44860;53.020;6.738;2023-03-29T10:26:16;16.83;;;12.10;;
59074;SDS011;44860;53.020;6.738;2023-03-29T10:29:03;17.73;;;11.93;;
59074;SDS011;44860;53.020;6.738;2023-03-29T10:31:31;16.30;;;11.40;;
59074;SDS011;44860;53.020;6.738;2023-03-29T10:34:00;18.67;;;11.80;;
59074;SDS011;44860;53.020;6.738;2023-03-29T10:36:28;18.05;;;12.18;;
59074;SDS011;44860;53.020;6.738;2023-03-29T10:38:55;17.48;;;12.20;;
59074;SDS011;44860;53.020;6.738;2023-03-29T10:41:23;17.90;;;12.30;;
59074;SDS011;44860;53.020;6.738;2023-03-29T10:43:54;17.70;;;12.70;;
59074;SDS011;44860;53.020;6.738;2023-03-29T10:46:30;23.23;;;13.02;;
59074;SDS011;44860;53.020;6.738;2023-03-29T10:49:04;17.27;;;12.02;;
59074;SDS011;44860;53.020;6.738;2023-03-29T10:51:34;17.05;;;12.73;;
59074;SDS011;44860;53.020;6.738;2023-03-29T10:54:01;15.55;;;12.75;;
59074;SDS011;44860;53.020;6.738;2023-03-29T10:56:30;17.63;;;12.65;;
59074;SDS011;44860;53.020;6.738;2023-03-29T10:59:20;15.05;;;11.80;;
59074;SDS011;44860;53.020;6.738;2023-03-29T11:15:08;16.63;;;12.73;;
59074;SDS011;44860;53.020;6.738;2023-03-29T11:26:10;15.13;;;12.73;;
59074;SDS011;44860;53.020;6.738;2023-03-29T11:31:23;20.55;;;13.15;;
59074;SDS011;44860;53.020;6.738;2023-03-29T11:34:00;15.90;;;12.38;;
59074;SDS011;44860;53.020;6.738;2023-03-29T11:39:05;17.83;;;11.32;;
59074;SDS011;44860;53.020;6.738;2023-03-29T11:41:52;16.70;;;11.82;;
59074;SDS011;44860;53.020;6.738;2023-03-29T11:44:30;17.63;;;12.07;;
59074;SDS011;44860;53.020;6.738;2023-03-29T11:47:16;15.48;;;11.77;;
59074;SDS011;44860;53.020;6.738;2023-03-29T11:49:45;15.25;;;11.27;;
59074;SDS011;44860;53.020;6.738;2023-03-29T11:52:24;15.43;;;10.82;;
59074;SDS011;44860;53.020;6.738;2023-03-29T11:54:55;16.02;;;11.30;;
59074;SDS011;44860;53.020;6.738;2023-03-29T12:00:02;12.02;;;10.45;;
59074;SDS011;44860;53.020;6.738;2023-03-29T12:02:49;15.73;;;10.73;;
59074;SDS011;44860;53.020;6.738;2023-03-29T12:05:23;14.65;;;10.75;;
59074;SDS011;44860;53.020;6.738;2023-03-29T12:10:55;13.00;;;10.27;;
59074;SDS011;44860;53.020;6.738;2023-03-29T12:18:49;11.75;;;9.07;;
59074;SDS011;44860;53.020;6.738;2023-03-29T12:21:20;12.45;;;9.82;;
59074;SDS011;44860;53.020;6.738;2023-03-29T12:23:47;11.43;;;9.60;;
59074;SDS011;44860;53.020;6.738;2023-03-29T12:39:45;9.60;;;8.05;;
59074;SDS011;44860;53.020;6.738;2023-03-29T12:42:19;11.43;;;9.13;;
59074;SDS011;44860;53.020;6.738;2023-03-29T12:44:50;16.63;;;9.05;;
59074;SDS011;44860;53.020;6.738;2023-03-29T12:47:29;13.45;;;9.00;;
59074;SDS011;44860;53.020;6.738;2023-03-29T12:49:58;9.75;;;7.80;;
59074;SDS011;44860;53.020;6.738;2023-03-29T12:52:34;12.18;;;7.95;;
59074;SDS011;44860;53.020;6.738;2023-03-29T12:55:02;11.48;;;7.68;;
59074;SDS011;44860;53.020;6.738;2023-03-29T12:57:55;11.40;;;7.55;;
59074;SDS011;44860;53.020;6.738;2023-03-29T13:03:01;10.32;;;7.60;;
59074;SDS011;44860;53.020;6.738;2023-03-29T13:05:43;9.68;;;6.90;;
59074;SDS011;44860;53.020;6.738;2023-03-29T13:08:43;11.05;;;7.80;;
59074;SDS011;44860;53.020;6.738;2023-03-29T13:11:07;11.57;;;8.85;;
59074;SDS011;44860;53.020;6.738;2023-03-29T13:13:47;10.43;;;7.82;;
59074;SDS011;44860;53.020;6.738;2023-03-29T13:16:27;13.00;;;8.57;;
59074;SDS011;44860;53.020;6.738;2023-03-29T13:37:47;12.93;;;9.70;;
59074;SDS011;44860;53.020;6.738;2023-03-29T13:40:31;11.00;;;8.50;;
59074;SDS011;44860;53.020;6.738;2023-03-29T13:43:08;10.98;;;8.80;;
59074;SDS011;44860;53.020;6.738;2023-03-29T13:50:56;11.23;;;9.18;;
59074;SDS011;44860;53.020;6.738;2023-03-29T13:53:30;14.02;;;9.60;;
59074;SDS011;44860;53.020;6.738;2023-03-29T13:56:01;12.45;;;9.43;;
59074;SDS011;44860;53.020;6.738;2023-03-29T13:58:40;11.48;;;9.30;;
59074;SDS011;44860;53.020;6.738;2023-03-29T14:01:24;14.18;;;9.18;;
59074;SDS011;44860;53.020;6.738;2023-03-29T14:03:52;11.25;;;9.50;;
59074;SDS011;44860;53.020;6.738;2023-03-29T14:06:30;10.32;;;8.60;;
59074;SDS011;44860;53.020;6.738;2023-03-29T14:08:58;13.60;;;8.82;;
59074;SDS011;44860;53.020;6.738;2023-03-29T14:11:29;11.57;;;8.63;;
59074;SDS011;44860;53.020;6.738;2023-03-29T14:13:59;11.68;;;9.32;;
59074;SDS011;44860;53.020;6.738;2023-03-29T14:16:30;13.85;;;8.98;;
59074;SDS011;44860;53.020;6.738;2023-03-29T14:19:01;11.98;;;8.98;;
59074;SDS011;44860;53.020;6.738;2023-03-29T14:21:42;12.27;;;9.27;;
59074;SDS011;44860;53.020;6.738;2023-03-29T14:24:20;11.10;;;9.60;;
59074;SDS011;44860;53.020;6.738;2023-03-29T14:26:51;12.70;;;9.82;;
59074;SDS011;44860;53.020;6.738;2023-03-29T14:29:17;11.95;;;10.43;;
59074;SDS011;44860;53.020;6.738;2023-03-29T14:31:43;11.52;;;9.63;;
59074;SDS011;44860;53.020;6.738;2023-03-29T14:34:16;9.98;;;8.93;;
59074;SDS011;44860;53.020;6.738;2023-03-29T14:36:43;12.00;;;9.50;;
59074;SDS011;44860;53.020;6.738;2023-03-29T14:39:11;12.50;;;10.43;;
59074;SDS011;44860;53.020;6.738;2023-03-29T14:41:46;11.73;;;9.50;;
59074;SDS011;44860;53.020;6.738;2023-03-29T14:44:14;12.75;;;9.77;;
59074;SDS011;44860;53.020;6.738;2023-03-29T14:46:40;14.00;;;11.20;;
59074;SDS011;44860;53.020;6.738;2023-03-29T14:49:08;15.10;;;11.02;;
59074;SDS011;44860;53.020;6.738;2023-03-29T14:51:38;12.13;;;10.80;;
59074;SDS011;44860;53.020;6.738;2023-03-29T14:54:04;12.05;;;10.50;;
59074;SDS011;44860;53.020;6.738;2023-03-29T14:56:31;12.13;;;9.40;;
59074;SDS011;44860;53.020;6.738;2023-03-29T14:58:58;12.43;;;9.82;;
59074;SDS011;44860;53.020;6.738;2023-03-29T15:01:25;10.93;;;9.65;;
59074;SDS011;44860;53.020;6.738;2023-03-29T15:04:03;12.38;;;10.45;;
59074;SDS011;44860;53.020;6.738;2023-03-29T15:06:30;11.82;;;9.85;;
59074;SDS011;44860;53.020;6.738;2023-03-29T15:08:56;14.55;;;10.27;;
59074;SDS011;44860;53.020;6.738;2023-03-29T15:11:26;13.27;;;10.27;;
59074;SDS011;44860;53.020;6.738;2023-03-29T15:14:01;11.32;;;9.75;;
59074;SDS011;44860;53.020;6.738;2023-03-29T15:16:32;13.18;;;10.30;;
59074;SDS011;44860;53.020;6.738;2023-03-29T15:19:04;12.35;;;10.10;;
59074;SDS011;44860;53.020;6.738;2023-03-29T15:21:31;15.43;;;10.88;;
59074;SDS011;44860;53.020;6.738;2023-03-29T15:23:59;12.93;;;10.23;;
59074;SDS011;44860;53.020;6.738;2023-03-29T15:26:34;13.70;;;10.05;;
59074;SDS011;44860;53.020;6.738;2023-03-29T15:31:34;13.82;;;10.27;;
59074;SDS011;44860;53.020;6.738;2023-03-29T15:34:44;16.27;;;10.90;;
59074;SDS011;44860;53.020;6.738;2023-03-29T15:36:52;13.80;;;10.07;;
59074;SDS011;44860;53.020;6.738;2023-03-29T15:39:19;12.77;;;10.73;;
59074;SDS011;44860;53.020;6.738;2023-03-29T15:41:47;13.27;;;11.35;;
59074;SDS011;44860;53.020;6.738;2023-03-29T15:44:15;12.75;;;11.40;;
59074;SDS011;44860;53.020;6.738;2023-03-29T15:46:45;13.90;;;11.30;;
59074;SDS011;44860;53.020;6.738;2023-03-29T15:49:11;15.82;;;12.05;;
59074;SDS011;44860;53.020;6.738;2023-03-29T15:51:37;15.43;;;12.20;;
59074;SDS011;44860;53.020;6.738;2023-03-29T15:54:04;15.85;;;11.57;;
59074;SDS011;44860;53.020;6.738;2023-03-29T15:56:31;15.32;;;11.60;;
59074;SDS011;44860;53.020;6.738;2023-03-29T15:59:01;15.13;;;11.60;;
59074;SDS011;44860;53.020;6.738;2023-03-29T16:01:35;14.02;;;11.00;;
59074;SDS011;44860;53.020;6.738;2023-03-29T16:04:05;14.40;;;11.57;;
59074;SDS011;44860;53.020;6.738;2023-03-29T16:06:35;13.88;;;11.20;;
59074;SDS011;44860;53.020;6.738;2023-03-29T16:09:01;14.95;;;11.02;;
59074;SDS011;44860;53.020;6.738;2023-03-29T16:11:28;13.70;;;11.07;;
59074;SDS011;44860;53.020;6.738;2023-03-29T16:13:54;12.90;;;10.90;;
59074;SDS011;44860;53.020;6.738;2023-03-29T16:16:20;12.38;;;10.63;;
59074;SDS011;44860;53.020;6.738;2023-03-29T16:18:46;12.32;;;10.57;;
59074;SDS011;44860;53.020;6.738;2023-03-29T16:21:12;13.70;;;10.75;;
59074;SDS011;44860;53.020;6.738;2023-03-29T16:23:40;13.73;;;10.05;;
59074;SDS011;44860;53.020;6.738;2023-03-29T16:26:06;12.85;;;10.48;;
59074;SDS011;44860;53.020;6.738;2023-03-29T16:28:35;11.98;;;10.23;;
59074;SDS011;44860;53.020;6.738;2023-03-29T16:31:01;10.93;;;9.68;;
59074;SDS011;44860;53.020;6.738;2023-03-29T16:33:28;12.77;;;10.05;;
59074;SDS011;44860;53.020;6.738;2023-03-29T16:35:53;12.32;;;10.43;;
59074;SDS011;44860;53.020;6.738;2023-03-29T16:38:19;12.07;;;10.18;;
59074;SDS011;44860;53.020;6.738;2023-03-29T16:40:47;11.30;;;10.02;;
59074;SDS011;44860;53.020;6.738;2023-03-29T16:43:13;11.05;;;9.95;;
59074;SDS011;44860;53.020;6.738;2023-03-29T16:45:40;13.45;;;10.23;;